Oosterschelde — PGNP — position and weather

sailwx.info

Track history (hours):
 
Tides and Currents Weather Stations Pressure Air Temp Water Temp Dewpoint Dewpoint Depression Visibility Wind Speed Wind Dir Waves Ship Positions

Oosterschelde (Netherlands)

Ship's website: http://www.oosterschelde.nl/indexuk.htm

Last reported at 2018-Dec-06 23:48 UTC. Time now 2018-Dec-12 06:02 UTC.
Position N 37°51' W 010°11'.

Length 49 m; draft 2.9 m.

Type: Sailing vessel. MMSI: 246010985.

Date/timePositionNaut miles runAvg speedWind from/ knotsBaromVisibWave heightAir tempDewpointWater temp
2018-Dec-06 23:48N 37°51' W 010°11'4 7.1
2018-Dec-06 23:11N 37°55' W 010°08'4 7.1
2018-Dec-06 22:40N 37°58' W 010°06'1 7.4
2018-Dec-06 22:30N 37°59' W 010°05'4 7.0
2018-Dec-06 21:55N 38°02' W 010°02'3 6.7
2018-Dec-06 21:27N 38°05' W 009°60'3 6.7
2018-Dec-06 20:59N 38°08' W 009°58'3 7.0
2018-Dec-06 20:30N 38°11' W 009°56'4 7.1
2018-Dec-06 20:00N 38°14' W 009°53'6 7.6
2018-Dec-06 19:12N 38°19' W 009°50'1 7.7
2018-Dec-06 19:01N 38°20' W 009°49'4 7.7
2018-Dec-06 18:30N 38°24' W 009°47'4 7.4
2018-Dec-06 18:00N 38°27' W 009°44'3 6.9
2018-Dec-06 17:30N 38°30' W 009°42'3 6.9
2018-Dec-06 17:00N 38°33' W 009°41'4 7.3
2018-Dec-06 16:30N 38°37' W 009°39'3 6.8
2018-Dec-06 16:00N 38°40' W 009°37'3 6.8
2018-Dec-06 15:30N 38°43' W 009°36'3 6.9
2018-Dec-06 15:00N 38°46' W 009°35'3 6.5
2018-Dec-06 14:30N 38°50' W 009°35'3 6.1
2018-Dec-06 14:00N 38°53' W 009°35'3 6.1
2018-Dec-06 13:30N 38°56' W 009°34'3 6.0
2018-Dec-06 13:00N 38°59' W 009°35'3 6.3
2018-Dec-06 12:30N 39°02' W 009°36'3 6.2
2018-Dec-06 12:00N 39°05' W 009°37'3 6.3
2018-Dec-06 11:30N 39°08' W 009°37'3 6.3
2018-Dec-06 11:00N 39°11' W 009°37'3 6.5
2018-Dec-06 10:30N 39°15' W 009°38'5 6.7
2018-Dec-06 09:46N 39°19' W 009°37'4 7.0
2018-Dec-06 09:14N 39°23' W 009°37'2 7.7
2018-Dec-06 08:56N 39°25' W 009°36'163 6.1
2018-Dec-05 06:20N 42°06' W 008°59'2 4.7
2018-Dec-05 06:00N 42°08' W 008°59'2 4.5
2018-Dec-05 05:30N 42°10' W 008°58'2 4.4
2018-Dec-05 05:00N 42°12' W 008°57'2 4.3
2018-Dec-05 04:30N 42°14' W 008°58'2 4.9
2018-Dec-05 04:00N 42°16' W 008°59'  
2018-Nov-29 23:58N 48°06' W 005°08'6 5.5
2018-Nov-29 22:49N 48°12' W 005°08'5 5.4
2018-Nov-29 21:58N 48°17' W 005°08'1 1.2
2018-Nov-29 21:30N 48°17' W 005°08'2 4.1
2018-Nov-29 21:00N 48°16' W 005°05'2 4.8
2018-Nov-29 20:30N 48°14' W 005°02'2 5.0
2018-Nov-29 20:00N 48°13' W 004°59'3 5.1
2018-Nov-29 19:30N 48°12' W 004°56'3 5.7
2018-Nov-29 19:00N 48°11' W 004°52'3 5.2
2018-Nov-29 18:30N 48°10' W 004°48'2 5.0
2018-Nov-29 18:00N 48°08' W 004°45'3 5.5
2018-Nov-29 17:30N 48°11' W 004°46'3 5.0
2018-Nov-29 17:00N 48°14' W 004°47'1 2.1
2018-Nov-29 16:31N 48°14' W 004°46'1 1.9
2018-Nov-29 16:00N 48°15' W 004°45'2 4.5
2018-Nov-29 15:30N 48°17' W 004°45'2 3.6
2018-Nov-29 15:01N 48°19' W 004°45'3 5.4
2018-Nov-29 14:30N 48°18' W 004°41'2 4.2
2018-Nov-29 14:01N 48°18' W 004°38'2 3.9
2018-Nov-29 13:30N 48°17' W 004°35'0 0.5
2018-Nov-29 13:00N 48°17' W 004°35'0 0.0
2018-Nov-29 12:30N 48°17' W 004°35'0 0.0
2018-Nov-29 12:00N 48°17' W 004°35'0 0.0
2018-Nov-29 11:30N 48°17' W 004°35'0 0.0
2018-Nov-29 11:00N 48°17' W 004°35'0 0.0
2018-Nov-29 10:30N 48°17' W 004°35'0 0.0
2018-Nov-29 10:00N 48°17' W 004°35'0 0.0
2018-Nov-29 09:30N 48°17' W 004°35'0 0.0
2018-Nov-29 09:00N 48°17' W 004°35'0 0.0
2018-Nov-29 08:30N 48°17' W 004°35'0 0.0
2018-Nov-29 08:00N 48°17' W 004°35'0 0.0
2018-Nov-29 07:30N 48°17' W 004°35'0 0.0
2018-Nov-29 07:00N 48°17' W 004°35'0 0.0
2018-Nov-29 06:30N 48°17' W 004°35'0 0.0
2018-Nov-29 06:00N 48°17' W 004°35'0 0.0
2018-Nov-29 05:30N 48°17' W 004°35'0 0.0
2018-Nov-29 05:00N 48°17' W 004°35'0 0.0
2018-Nov-29 04:30N 48°17' W 004°35'0 0.0
2018-Nov-29 04:00N 48°17' W 004°35'0 0.0
2018-Nov-29 03:00N 48°17' W 004°35'0 0.0
2018-Nov-29 02:30N 48°17' W 004°35'0 0.0
2018-Nov-29 02:00N 48°17' W 004°35'0 0.0
2018-Nov-29 01:30N 48°17' W 004°35'0 0.0
2018-Nov-29 01:00N 48°17' W 004°35'0 0.0
2018-Nov-29 00:30N 48°17' W 004°35'0 0.0
2018-Nov-29 00:00N 48°17' W 004°35'0 0.0
2018-Nov-28 23:30N 48°17' W 004°35'0 0.0
2018-Nov-28 23:00N 48°17' W 004°35'0 0.0
2018-Nov-28 22:30N 48°17' W 004°35'0 0.0
2018-Nov-28 22:00N 48°17' W 004°35'0 0.0
2018-Nov-28 21:30N 48°17' W 004°35'0 0.0
2018-Nov-28 21:00N 48°17' W 004°35'0 0.0
2018-Nov-28 20:30N 48°17' W 004°35'0 0.0
2018-Nov-28 20:00N 48°17' W 004°35'0 0.0
2018-Nov-28 19:30N 48°17' W 004°35'0 0.0
2018-Nov-28 19:00N 48°17' W 004°35'0 0.0
2018-Nov-28 18:30N 48°17' W 004°35'0 0.0
2018-Nov-28 18:00N 48°17' W 004°35'0 0.0
2018-Nov-28 17:30N 48°17' W 004°35'0 0.0
2018-Nov-28 17:00N 48°17' W 004°35'0 0.0
2018-Nov-28 16:30N 48°17' W 004°35'0 0.0
2018-Nov-28 16:00N 48°17' W 004°35'0 0.0
2018-Nov-28 15:30N 48°17' W 004°35'0 0.0
2018-Nov-28 15:00N 48°17' W 004°35'0 0.0
2018-Nov-28 14:30N 48°17' W 004°35'0 0.0
2018-Nov-28 14:00N 48°17' W 004°35'0 0.0
2018-Nov-28 13:30N 48°17' W 004°35'0 0.0
2018-Nov-28 13:00N 48°17' W 004°35'0 0.0
2018-Nov-28 12:30N 48°17' W 004°35'0 0.0
2018-Nov-28 12:00N 48°17' W 004°35'0 0.0
2018-Nov-28 11:30N 48°17' W 004°35'0 0.0
2018-Nov-28 11:00N 48°17' W 004°35'0 0.0
2018-Nov-28 10:31N 48°17' W 004°35'0 0.3
2018-Nov-28 10:00N 48°17' W 004°35'0 0.0
2018-Nov-28 09:30N 48°17' W 004°35'0 0.0
2018-Nov-28 09:01N 48°17' W 004°35'0 0.0
2018-Nov-28 08:30N 48°17' W 004°35'0 0.0
2018-Nov-28 08:01N 48°17' W 004°35'0 0.0
2018-Nov-28 07:30N 48°17' W 004°35'0 0.0
2018-Nov-28 07:01N 48°17' W 004°35'0 0.0
2018-Nov-28 06:30N 48°17' W 004°35'0 0.0
2018-Nov-28 06:00N 48°17' W 004°35'0 0.0
2018-Nov-28 05:30N 48°17' W 004°35'0 0.0
2018-Nov-28 05:00N 48°17' W 004°35'0 0.0
2018-Nov-28 04:30N 48°17' W 004°35'0 0.0
2018-Nov-28 04:01N 48°17' W 004°35'0 0.2
2018-Nov-28 03:30N 48°17' W 004°35'0 0.0
2018-Nov-28 03:00N 48°17' W 004°35'0 0.0
2018-Nov-28 02:31N 48°17' W 004°35'0 0.0
2018-Nov-28 02:00N 48°17' W 004°35'0 0.0
2018-Nov-28 01:31N 48°17' W 004°35'0 0.0
2018-Nov-28 01:01N 48°17' W 004°35'0 0.0
2018-Nov-28 00:31N 48°17' W 004°35'0 0.0
2018-Nov-28 00:00N 48°17' W 004°35'0 0.0
2018-Nov-27 23:30N 48°17' W 004°35'0 0.0
2018-Nov-27 23:00N 48°17' W 004°35'0 0.0
2018-Nov-27 22:31N 48°17' W 004°35'0 0.0
2018-Nov-27 22:00N 48°17' W 004°35'0 0.0
2018-Nov-27 21:30N 48°17' W 004°35'0 0.0
2018-Nov-27 21:00N 48°17' W 004°35'0 0.0
2018-Nov-27 20:31N 48°17' W 004°35'0 0.0
2018-Nov-27 20:00N 48°17' W 004°35'0 0.0
2018-Nov-27 19:31N 48°17' W 004°35'0 0.0
2018-Nov-27 19:01N 48°17' W 004°35'0 0.0
2018-Nov-27 18:30N 48°17' W 004°35'0 0.0
2018-Nov-27 18:00N 48°17' W 004°35'0 0.0
2018-Nov-27 17:30N 48°17' W 004°35'0 0.0
2018-Nov-27 17:00N 48°17' W 004°35'0 0.0
2018-Nov-27 16:31N 48°17' W 004°35'0 0.0
2018-Nov-27 16:00N 48°17' W 004°35'0 0.2
2018-Nov-27 15:30N 48°17' W 004°35'0 0.0
2018-Nov-27 15:01N 48°17' W 004°35'0 0.0
2018-Nov-27 14:30N 48°17' W 004°35'0 0.1
2018-Nov-27 14:00N 48°17' W 004°35'3 5.5
2018-Nov-27 13:31N 48°18' W 004°39'3 6.1
2018-Nov-27 13:00N 48°18' W 004°44'2 4.9
2018-Nov-27 12:30N 48°19' W 004°47'2 3.8
2018-Nov-27 12:01N 48°21' W 004°48'3 5.3
2018-Nov-27 11:29N 48°23' W 004°49'3 6.2
2018-Nov-27 11:00N 48°26' W 004°50'3 6.0
2018-Nov-27 10:31N 48°29' W 004°50'3 6.0
2018-Nov-27 10:00N 48°32' W 004°49'3 5.5
2018-Nov-27 09:30N 48°35' W 004°48'2 5.0
2018-Nov-27 09:01N 48°37' W 004°46'3 5.1
2018-Nov-27 08:30N 48°38' W 004°42'2 4.5
2018-Nov-27 08:01N 48°39' W 004°39'2 4.5
2018-Nov-27 07:30N 48°40' W 004°36'2 4.1
2018-Nov-27 07:00N 48°41' W 004°33'2 3.2
2018-Nov-27 06:30N 48°42' W 004°31'5 3.6
2018-Nov-27 05:07N 48°43' W 004°24'8 5.0
2018-Nov-27 03:35N 48°47' W 004°34'1 5.1
2018-Nov-27 03:18N 48°48' W 004°36'  
Track history (hours):
 
Tides and Currents Weather Stations Pressure Air Temp Water Temp Dewpoint Dewpoint Depression Visibility Wind Speed Wind Dir Waves Ship Positions

Oosterschelde (Netherlands)

Ship's website: http://www.oosterschelde.nl/indexuk.htm

Last reported at 2018-Dec-06 23:48 UTC. Time now 2018-Dec-12 06:02 UTC.
Position N 37°51' W 010°11'.

Length 49 m; draft 2.9 m.

Type: Sailing vessel. MMSI: 246010985.

Date/timePositionNaut miles runAvg speedWind from/ knotsBaromVisibWave heightAir tempDewpointWater temp
2018-Dec-06 23:48N 37°51' W 010°11'4 7.1
2018-Dec-06 23:11N 37°55' W 010°08'4 7.1
2018-Dec-06 22:40N 37°58' W 010°06'1 7.4
2018-Dec-06 22:30N 37°59' W 010°05'4 7.0
2018-Dec-06 21:55N 38°02' W 010°02'3 6.7
2018-Dec-06 21:27N 38°05' W 009°60'3 6.7
2018-Dec-06 20:59N 38°08' W 009°58'3 7.0
2018-Dec-06 20:30N 38°11' W 009°56'4 7.1
2018-Dec-06 20:00N 38°14' W 009°53'6 7.6
2018-Dec-06 19:12N 38°19' W 009°50'1 7.7
2018-Dec-06 19:01N 38°20' W 009°49'4 7.7
2018-Dec-06 18:30N 38°24' W 009°47'4 7.4
2018-Dec-06 18:00N 38°27' W 009°44'3 6.9
2018-Dec-06 17:30N 38°30' W 009°42'3 6.9
2018-Dec-06 17:00N 38°33' W 009°41'4 7.3
2018-Dec-06 16:30N 38°37' W 009°39'3 6.8
2018-Dec-06 16:00N 38°40' W 009°37'3 6.8
2018-Dec-06 15:30N 38°43' W 009°36'3 6.9
2018-Dec-06 15:00N 38°46' W 009°35'3 6.5
2018-Dec-06 14:30N 38°50' W 009°35'3 6.1
2018-Dec-06 14:00N 38°53' W 009°35'3 6.1
2018-Dec-06 13:30N 38°56' W 009°34'3 6.0
2018-Dec-06 13:00N 38°59' W 009°35'3 6.3
2018-Dec-06 12:30N 39°02' W 009°36'3 6.2
2018-Dec-06 12:00N 39°05' W 009°37'3 6.3
2018-Dec-06 11:30N 39°08' W 009°37'3 6.3
2018-Dec-06 11:00N 39°11' W 009°37'3 6.5
2018-Dec-06 10:30N 39°15' W 009°38'5 6.7
2018-Dec-06 09:46N 39°19' W 009°37'4 7.0
2018-Dec-06 09:14N 39°23' W 009°37'2 7.7
2018-Dec-06 08:56N 39°25' W 009°36'163 6.1
2018-Dec-05 06:20N 42°06' W 008°59'2 4.7
2018-Dec-05 06:00N 42°08' W 008°59'2 4.5
2018-Dec-05 05:30N 42°10' W 008°58'2 4.4
2018-Dec-05 05:00N 42°12' W 008°57'2 4.3
2018-Dec-05 04:30N 42°14' W 008°58'2 4.9
2018-Dec-05 04:00N 42°16' W 008°59'  
2018-Nov-29 23:58N 48°06' W 005°08'6 5.5
2018-Nov-29 22:49N 48°12' W 005°08'5 5.4
2018-Nov-29 21:58N 48°17' W 005°08'1 1.2
2018-Nov-29 21:30N 48°17' W 005°08'2 4.1
2018-Nov-29 21:00N 48°16' W 005°05'2 4.8
2018-Nov-29 20:30N 48°14' W 005°02'2 5.0
2018-Nov-29 20:00N 48°13' W 004°59'3 5.1
2018-Nov-29 19:30N 48°12' W 004°56'3 5.7
2018-Nov-29 19:00N 48°11' W 004°52'3 5.2
2018-Nov-29 18:30N 48°10' W 004°48'2 5.0
2018-Nov-29 18:00N 48°08' W 004°45'3 5.5
2018-Nov-29 17:30N 48°11' W 004°46'3 5.0
2018-Nov-29 17:00N 48°14' W 004°47'1 2.1
2018-Nov-29 16:31N 48°14' W 004°46'1 1.9
2018-Nov-29 16:00N 48°15' W 004°45'2 4.5
2018-Nov-29 15:30N 48°17' W 004°45'2 3.6
2018-Nov-29 15:01N 48°19' W 004°45'3 5.4
2018-Nov-29 14:30N 48°18' W 004°41'2 4.2
2018-Nov-29 14:01N 48°18' W 004°38'2 3.9
2018-Nov-29 13:30N 48°17' W 004°35'0 0.5
2018-Nov-29 13:00N 48°17' W 004°35'0 0.0
2018-Nov-29 12:30N 48°17' W 004°35'0 0.0
2018-Nov-29 12:00N 48°17' W 004°35'0 0.0
2018-Nov-29 11:30N 48°17' W 004°35'0 0.0
2018-Nov-29 11:00N 48°17' W 004°35'0 0.0
2018-Nov-29 10:30N 48°17' W 004°35'0 0.0
2018-Nov-29 10:00N 48°17' W 004°35'0 0.0
2018-Nov-29 09:30N 48°17' W 004°35'0 0.0
2018-Nov-29 09:00N 48°17' W 004°35'0 0.0
2018-Nov-29 08:30N 48°17' W 004°35'0 0.0
2018-Nov-29 08:00N 48°17' W 004°35'0 0.0
2018-Nov-29 07:30N 48°17' W 004°35'0 0.0
2018-Nov-29 07:00N 48°17' W 004°35'0 0.0
2018-Nov-29 06:30N 48°17' W 004°35'0 0.0
2018-Nov-29 06:00N 48°17' W 004°35'0 0.0
2018-Nov-29 05:30N 48°17' W 004°35'0 0.0
2018-Nov-29 05:00N 48°17' W 004°35'0 0.0
2018-Nov-29 04:30N 48°17' W 004°35'0 0.0
2018-Nov-29 04:00N 48°17' W 004°35'0 0.0
2018-Nov-29 03:00N 48°17' W 004°35'0 0.0
2018-Nov-29 02:30N 48°17' W 004°35'0 0.0
2018-Nov-29 02:00N 48°17' W 004°35'0 0.0
2018-Nov-29 01:30N 48°17' W 004°35'0 0.0
2018-Nov-29 01:00N 48°17' W 004°35'0 0.0
2018-Nov-29 00:30N 48°17' W 004°35'0 0.0
2018-Nov-29 00:00N 48°17' W 004°35'0 0.0
2018-Nov-28 23:30N 48°17' W 004°35'0 0.0
2018-Nov-28 23:00N 48°17' W 004°35'0 0.0
2018-Nov-28 22:30N 48°17' W 004°35'0 0.0
2018-Nov-28 22:00N 48°17' W 004°35'0 0.0
2018-Nov-28 21:30N 48°17' W 004°35'0 0.0
2018-Nov-28 21:00N 48°17' W 004°35'0 0.0
2018-Nov-28 20:30N 48°17' W 004°35'0 0.0
2018-Nov-28 20:00N 48°17' W 004°35'0 0.0
2018-Nov-28 19:30N 48°17' W 004°35'0 0.0
2018-Nov-28 19:00N 48°17' W 004°35'0 0.0
2018-Nov-28 18:30N 48°17' W 004°35'0 0.0
2018-Nov-28 18:00N 48°17' W 004°35'0 0.0
2018-Nov-28 17:30N 48°17' W 004°35'0 0.0
2018-Nov-28 17:00N 48°17' W 004°35'0 0.0
2018-Nov-28 16:30N 48°17' W 004°35'0 0.0
2018-Nov-28 16:00N 48°17' W 004°35'0 0.0
2018-Nov-28 15:30N 48°17' W 004°35'0 0.0
2018-Nov-28 15:00N 48°17' W 004°35'0 0.0
2018-Nov-28 14:30N 48°17' W 004°35'0 0.0
2018-Nov-28 14:00N 48°17' W 004°35'0 0.0
2018-Nov-28 13:30N 48°17' W 004°35'0 0.0
2018-Nov-28 13:00N 48°17' W 004°35'0 0.0
2018-Nov-28 12:30N 48°17' W 004°35'0 0.0
2018-Nov-28 12:00N 48°17' W 004°35'0 0.0
2018-Nov-28 11:30N 48°17' W 004°35'0 0.0
2018-Nov-28 11:00N 48°17' W 004°35'0 0.0
2018-Nov-28 10:31N 48°17' W 004°35'0 0.3
2018-Nov-28 10:00N 48°17' W 004°35'0 0.0
2018-Nov-28 09:30N 48°17' W 004°35'0 0.0
2018-Nov-28 09:01N 48°17' W 004°35'0 0.0
2018-Nov-28 08:30N 48°17' W 004°35'0 0.0
2018-Nov-28 08:01N 48°17' W 004°35'0 0.0
2018-Nov-28 07:30N 48°17' W 004°35'0 0.0
2018-Nov-28 07:01N 48°17' W 004°35'0 0.0
2018-Nov-28 06:30N 48°17' W 004°35'0 0.0
2018-Nov-28 06:00N 48°17' W 004°35'0 0.0
2018-Nov-28 05:30N 48°17' W 004°35'0 0.0
2018-Nov-28 05:00N 48°17' W 004°35'0 0.0
2018-Nov-28 04:30N 48°17' W 004°35'0 0.0
2018-Nov-28 04:01N 48°17' W 004°35'0 0.2
2018-Nov-28 03:30N 48°17' W 004°35'0 0.0
2018-Nov-28 03:00N 48°17' W 004°35'0 0.0
2018-Nov-28 02:31N 48°17' W 004°35'0 0.0
2018-Nov-28 02:00N 48°17' W 004°35'0 0.0
2018-Nov-28 01:31N 48°17' W 004°35'0 0.0
2018-Nov-28 01:01N 48°17' W 004°35'0 0.0
2018-Nov-28 00:31N 48°17' W 004°35'0 0.0
2018-Nov-28 00:00N 48°17' W 004°35'0 0.0
2018-Nov-27 23:30N 48°17' W 004°35'0 0.0
2018-Nov-27 23:00N 48°17' W 004°35'0 0.0
2018-Nov-27 22:31N 48°17' W 004°35'0 0.0
2018-Nov-27 22:00N 48°17' W 004°35'0 0.0
2018-Nov-27 21:30N 48°17' W 004°35'0 0.0
2018-Nov-27 21:00N 48°17' W 004°35'0 0.0
2018-Nov-27 20:31N 48°17' W 004°35'0 0.0
2018-Nov-27 20:00N 48°17' W 004°35'0 0.0
2018-Nov-27 19:31N 48°17' W 004°35'0 0.0
2018-Nov-27 19:01N 48°17' W 004°35'0 0.0
2018-Nov-27 18:30N 48°17' W 004°35'0 0.0
2018-Nov-27 18:00N 48°17' W 004°35'0 0.0
2018-Nov-27 17:30N 48°17' W 004°35'0 0.0
2018-Nov-27 17:00N 48°17' W 004°35'0 0.0
2018-Nov-27 16:31N 48°17' W 004°35'0 0.0
2018-Nov-27 16:00N 48°17' W 004°35'0 0.2
2018-Nov-27 15:30N 48°17' W 004°35'0 0.0
2018-Nov-27 15:01N 48°17' W 004°35'0 0.0
2018-Nov-27 14:30N 48°17' W 004°35'0 0.1
2018-Nov-27 14:00N 48°17' W 004°35'3 5.5
2018-Nov-27 13:31N 48°18' W 004°39'3 6.1
2018-Nov-27 13:00N 48°18' W 004°44'2 4.9
2018-Nov-27 12:30N 48°19' W 004°47'2 3.8
2018-Nov-27 12:01N 48°21' W 004°48'3 5.3
2018-Nov-27 11:29N 48°23' W 004°49'3 6.2
2018-Nov-27 11:00N 48°26' W 004°50'3 6.0
2018-Nov-27 10:31N 48°29' W 004°50'3 6.0
2018-Nov-27 10:00N 48°32' W 004°49'3 5.5
2018-Nov-27 09:30N 48°35' W 004°48'2 5.0
2018-Nov-27 09:01N 48°37' W 004°46'3 5.1
2018-Nov-27 08:30N 48°38' W 004°42'2 4.5
2018-Nov-27 08:01N 48°39' W 004°39'2 4.5
2018-Nov-27 07:30N 48°40' W 004°36'2 4.1
2018-Nov-27 07:00N 48°41' W 004°33'2 3.2
2018-Nov-27 06:30N 48°42' W 004°31'5 3.6
2018-Nov-27 05:07N 48°43' W 004°24'8 5.0
2018-Nov-27 03:35N 48°47' W 004°34'1 5.1
2018-Nov-27 03:18N 48°48' W 004°36'  

Dump ship's entire track history